sensor_id;sensor_type;location;lat;lon;timestamp;P1;durP1;ratioP1;P2;durP2;ratioP2
9330;SDS011;4704;50.470;12.072;2023-01-15T00:00:52;0.50;;;0.50;;
9330;SDS011;4704;50.470;12.072;2023-01-15T00:03:19;0.40;;;0.40;;
9330;SDS011;4704;50.470;12.072;2023-01-15T00:05:49;0.50;;;0.50;;
9330;SDS011;4704;50.470;12.072;2023-01-15T00:08:16;0.93;;;0.52;;
9330;SDS011;4704;50.470;12.072;2023-01-15T00:10:44;0.65;;;0.50;;
9330;SDS011;4704;50.470;12.072;2023-01-15T00:13:12;0.60;;;0.60;;
9330;SDS011;4704;50.470;12.072;2023-01-15T00:15:40;0.63;;;0.60;;
9330;SDS011;4704;50.470;12.072;2023-01-15T00:18:08;0.70;;;0.50;;
9330;SDS011;4704;50.470;12.072;2023-01-15T00:20:36;0.43;;;0.43;;
9330;SDS011;4704;50.470;12.072;2023-01-15T00:23:05;0.60;;;0.60;;
9330;SDS011;4704;50.470;12.072;2023-01-15T00:25:55;0.52;;;0.52;;
9330;SDS011;4704;50.470;12.072;2023-01-15T00:28:40;0.60;;;0.55;;
9330;SDS011;4704;50.470;12.072;2023-01-15T00:31:08;0.60;;;0.60;;
9330;SDS011;4704;50.470;12.072;2023-01-15T00:33:36;0.57;;;0.57;;
9330;SDS011;4704;50.470;12.072;2023-01-15T00:36:03;0.60;;;0.60;;
9330;SDS011;4704;50.470;12.072;2023-01-15T00:38:33;0.60;;;0.60;;
9330;SDS011;4704;50.470;12.072;2023-01-15T00:41:01;0.57;;;0.57;;
9330;SDS011;4704;50.470;12.072;2023-01-15T00:43:28;0.50;;;0.50;;
9330;SDS011;4704;50.470;12.072;2023-01-15T00:45:56;0.50;;;0.50;;
9330;SDS011;4704;50.470;12.072;2023-01-15T00:48:24;0.77;;;0.60;;
9330;SDS011;4704;50.470;12.072;2023-01-15T00:50:52;0.55;;;0.55;;
9330;SDS011;4704;50.470;12.072;2023-01-15T00:53:19;0.47;;;0.47;;
9330;SDS011;4704;50.470;12.072;2023-01-15T00:55:49;0.35;;;0.32;;
9330;SDS011;4704;50.470;12.072;2023-01-15T00:58:16;0.88;;;0.57;;
9330;SDS011;4704;50.470;12.072;2023-01-15T01:00:44;0.85;;;0.68;;
9330;SDS011;4704;50.470;12.072;2023-01-15T01:03:12;0.55;;;0.55;;
9330;SDS011;4704;50.470;12.072;2023-01-15T01:05:40;0.52;;;0.50;;
9330;SDS011;4704;50.470;12.072;2023-01-15T01:08:07;0.60;;;0.60;;
9330;SDS011;4704;50.470;12.072;2023-01-15T01:10:35;0.60;;;0.60;;
9330;SDS011;4704;50.470;12.072;2023-01-15T01:13:04;0.50;;;0.50;;
9330;SDS011;4704;50.470;12.072;2023-01-15T01:15:32;0.60;;;0.50;;
9330;SDS011;4704;50.470;12.072;2023-01-15T01:18:00;0.68;;;0.68;;
9330;SDS011;4704;50.470;12.072;2023-01-15T01:20:28;1.10;;;0.47;;
9330;SDS011;4704;50.470;12.072;2023-01-15T01:22:55;0.40;;;0.40;;
9330;SDS011;4704;50.470;12.072;2023-01-15T01:25:23;0.50;;;0.45;;
9330;SDS011;4704;50.470;12.072;2023-01-15T01:27:51;0.50;;;0.30;;
9330;SDS011;4704;50.470;12.072;2023-01-15T01:30:20;0.73;;;0.52;;
9330;SDS011;4704;50.470;12.072;2023-01-15T01:32:48;0.40;;;0.40;;
9330;SDS011;4704;50.470;12.072;2023-01-15T01:35:16;0.63;;;0.40;;
9330;SDS011;4704;50.470;12.072;2023-01-15T01:37:47;0.70;;;0.50;;
9330;SDS011;4704;50.470;12.072;2023-01-15T01:40:15;0.50;;;0.50;;
9330;SDS011;4704;50.470;12.072;2023-01-15T01:42:43;0.60;;;0.60;;
9330;SDS011;4704;50.470;12.072;2023-01-15T01:45:16;0.50;;;0.45;;
9330;SDS011;4704;50.470;12.072;2023-01-15T01:47:46;0.43;;;0.43;;
9330;SDS011;4704;50.470;12.072;2023-01-15T01:50:14;0.70;;;0.50;;
9330;SDS011;4704;50.470;12.072;2023-01-15T01:52:43;0.47;;;0.47;;
9330;SDS011;4704;50.470;12.072;2023-01-15T01:55:13;0.80;;;0.47;;
9330;SDS011;4704;50.470;12.072;2023-01-15T01:57:41;0.82;;;0.70;;
9330;SDS011;4704;50.470;12.072;2023-01-15T02:00:09;0.47;;;0.30;;
9330;SDS011;4704;50.470;12.072;2023-01-15T02:02:39;0.40;;;0.40;;
9330;SDS011;4704;50.470;12.072;2023-01-15T02:05:09;0.70;;;0.60;;
9330;SDS011;4704;50.470;12.072;2023-01-15T02:07:40;0.35;;;0.30;;
9330;SDS011;4704;50.470;12.072;2023-01-15T02:10:12;0.50;;;0.50;;
9330;SDS011;4704;50.470;12.072;2023-01-15T02:12:40;0.55;;;0.55;;
9330;SDS011;4704;50.470;12.072;2023-01-15T02:15:10;0.50;;;0.43;;
9330;SDS011;4704;50.470;12.072;2023-01-15T02:17:42;0.47;;;0.47;;
9330;SDS011;4704;50.470;12.072;2023-01-15T02:20:20;0.50;;;0.50;;
9330;SDS011;4704;50.470;12.072;2023-01-15T02:25:33;0.50;;;0.50;;
9330;SDS011;4704;50.470;12.072;2023-01-15T02:28:09;0.40;;;0.40;;
9330;SDS011;4704;50.470;12.072;2023-01-15T02:30:39;0.30;;;0.30;;
9330;SDS011;4704;50.470;12.072;2023-01-15T02:33:09;1.05;;;0.57;;
9330;SDS011;4704;50.470;12.072;2023-01-15T02:35:39;0.50;;;0.50;;
9330;SDS011;4704;50.470;12.072;2023-01-15T02:38:10;0.43;;;0.43;;
9330;SDS011;4704;50.470;12.072;2023-01-15T02:40:38;0.40;;;0.40;;
9330;SDS011;4704;50.470;12.072;2023-01-15T02:43:09;0.47;;;0.40;;
9330;SDS011;4704;50.470;12.072;2023-01-15T02:45:39;0.40;;;0.40;;
9330;SDS011;4704;50.470;12.072;2023-01-15T02:48:08;0.40;;;0.40;;
9330;SDS011;4704;50.470;12.072;2023-01-15T02:50:38;0.40;;;0.40;;
9330;SDS011;4704;50.470;12.072;2023-01-15T02:53:08;0.63;;;0.50;;
9330;SDS011;4704;50.470;12.072;2023-01-15T02:55:38;0.43;;;0.43;;
9330;SDS011;4704;50.470;12.072;2023-01-15T02:58:12;0.40;;;0.40;;
9330;SDS011;4704;50.470;12.072;2023-01-15T03:00:41;0.50;;;0.50;;
9330;SDS011;4704;50.470;12.072;2023-01-15T03:03:12;0.43;;;0.43;;
9330;SDS011;4704;50.470;12.072;2023-01-15T03:05:42;0.40;;;0.40;;
9330;SDS011;4704;50.470;12.072;2023-01-15T03:08:11;0.65;;;0.40;;
9330;SDS011;4704;50.470;12.072;2023-01-15T03:10:41;0.40;;;0.40;;
9330;SDS011;4704;50.470;12.072;2023-01-15T03:13:12;0.50;;;0.50;;
9330;SDS011;4704;50.470;12.072;2023-01-15T03:15:45;0.60;;;0.45;;
9330;SDS011;4704;50.470;12.072;2023-01-15T03:18:35;0.40;;;0.40;;
9330;SDS011;4704;50.470;12.072;2023-01-15T03:21:04;0.30;;;0.30;;
9330;SDS011;4704;50.470;12.072;2023-01-15T03:23:33;0.50;;;0.50;;
9330;SDS011;4704;50.470;12.072;2023-01-15T03:26:02;0.40;;;0.40;;
9330;SDS011;4704;50.470;12.072;2023-01-15T03:28:32;0.40;;;0.40;;
9330;SDS011;4704;50.470;12.072;2023-01-15T03:31:01;0.50;;;0.40;;
9330;SDS011;4704;50.470;12.072;2023-01-15T03:33:29;0.52;;;0.40;;
9330;SDS011;4704;50.470;12.072;2023-01-15T03:35:57;0.35;;;0.35;;
9330;SDS011;4704;50.470;12.072;2023-01-15T03:38:26;0.55;;;0.40;;
9330;SDS011;4704;50.470;12.072;2023-01-15T03:40:57;0.40;;;0.30;;
9330;SDS011;4704;50.470;12.072;2023-01-15T03:43:28;0.40;;;0.40;;
9330;SDS011;4704;50.470;12.072;2023-01-15T03:46:10;0.40;;;0.38;;
9330;SDS011;4704;50.470;12.072;2023-01-15T03:48:41;0.40;;;0.40;;
9330;SDS011;4704;50.470;12.072;2023-01-15T03:51:11;0.60;;;0.40;;
9330;SDS011;4704;50.470;12.072;2023-01-15T03:53:40;0.50;;;0.40;;
9330;SDS011;4704;50.470;12.072;2023-01-15T03:56:11;0.40;;;0.40;;
9330;SDS011;4704;50.470;12.072;2023-01-15T03:58:41;0.30;;;0.30;;
9330;SDS011;4704;50.470;12.072;2023-01-15T04:01:12;0.30;;;0.30;;
9330;SDS011;4704;50.470;12.072;2023-01-15T04:03:40;0.50;;;0.40;;
9330;SDS011;4704;50.470;12.072;2023-01-15T04:06:09;0.50;;;0.30;;
9330;SDS011;4704;50.470;12.072;2023-01-15T04:08:37;0.30;;;0.30;;
9330;SDS011;4704;50.470;12.072;2023-01-15T04:11:05;0.40;;;0.40;;
9330;SDS011;4704;50.470;12.072;2023-01-15T04:13:33;0.40;;;0.30;;
9330;SDS011;4704;50.470;12.072;2023-01-15T04:16:01;0.82;;;0.40;;
9330;SDS011;4704;50.470;12.072;2023-01-15T04:18:30;0.50;;;0.50;;
9330;SDS011;4704;50.470;12.072;2023-01-15T04:20:58;0.30;;;0.30;;
9330;SDS011;4704;50.470;12.072;2023-01-15T04:23:25;0.40;;;0.40;;
9330;SDS011;4704;50.470;12.072;2023-01-15T04:25:53;0.20;;;0.20;;
9330;SDS011;4704;50.470;12.072;2023-01-15T04:28:21;0.30;;;0.30;;
9330;SDS011;4704;50.470;12.072;2023-01-15T04:30:49;0.40;;;0.40;;
9330;SDS011;4704;50.470;12.072;2023-01-15T04:33:16;0.40;;;0.40;;
9330;SDS011;4704;50.470;12.072;2023-01-15T04:35:46;0.30;;;0.30;;
9330;SDS011;4704;50.470;12.072;2023-01-15T04:38:13;0.50;;;0.50;;
9330;SDS011;4704;50.470;12.072;2023-01-15T04:40:42;0.40;;;0.40;;
9330;SDS011;4704;50.470;12.072;2023-01-15T04:43:27;0.38;;;0.30;;
9330;SDS011;4704;50.470;12.072;2023-01-15T04:46:12;0.30;;;0.30;;
9330;SDS011;4704;50.470;12.072;2023-01-15T04:48:39;0.22;;;0.22;;
9330;SDS011;4704;50.470;12.072;2023-01-15T04:51:09;0.20;;;0.20;;
9330;SDS011;4704;50.470;12.072;2023-01-15T04:53:36;0.40;;;0.40;;
9330;SDS011;4704;50.470;12.072;2023-01-15T04:56:04;0.43;;;0.40;;
9330;SDS011;4704;50.470;12.072;2023-01-15T04:58:32;0.25;;;0.25;;
9330;SDS011;4704;50.470;12.072;2023-01-15T05:01:00;0.30;;;0.30;;
9330;SDS011;4704;50.470;12.072;2023-01-15T05:03:29;0.30;;;0.30;;
9330;SDS011;4704;50.470;12.072;2023-01-15T05:05:59;0.30;;;0.30;;
9330;SDS011;4704;50.470;12.072;2023-01-15T05:08:28;0.30;;;0.30;;
9330;SDS011;4704;50.470;12.072;2023-01-15T05:10:56;0.22;;;0.20;;
9330;SDS011;4704;50.470;12.072;2023-01-15T05:13:27;0.40;;;0.40;;
9330;SDS011;4704;50.470;12.072;2023-01-15T05:15:56;0.45;;;0.40;;
9330;SDS011;4704;50.470;12.072;2023-01-15T05:18:23;0.40;;;0.40;;
9330;SDS011;4704;50.470;12.072;2023-01-15T05:20:51;0.30;;;0.30;;
9330;SDS011;4704;50.470;12.072;2023-01-15T05:23:18;0.30;;;0.30;;
9330;SDS011;4704;50.470;12.072;2023-01-15T05:25:47;0.30;;;0.30;;
9330;SDS011;4704;50.470;12.072;2023-01-15T05:28:14;0.40;;;0.40;;
9330;SDS011;4704;50.470;12.072;2023-01-15T05:30:43;0.30;;;0.30;;
9330;SDS011;4704;50.470;12.072;2023-01-15T05:33:10;0.30;;;0.30;;
9330;SDS011;4704;50.470;12.072;2023-01-15T05:35:38;0.40;;;0.35;;
9330;SDS011;4704;50.470;12.072;2023-01-15T05:38:05;0.35;;;0.35;;
9330;SDS011;4704;50.470;12.072;2023-01-15T05:40:33;0.25;;;0.25;;
9330;SDS011;4704;50.470;12.072;2023-01-15T05:43:01;0.30;;;0.30;;
9330;SDS011;4704;50.470;12.072;2023-01-15T05:45:29;0.30;;;0.30;;
9330;SDS011;4704;50.470;12.072;2023-01-15T05:47:56;0.30;;;0.30;;
9330;SDS011;4704;50.470;12.072;2023-01-15T05:50:24;0.20;;;0.20;;
9330;SDS011;4704;50.470;12.072;2023-01-15T05:52:51;0.47;;;0.38;;
9330;SDS011;4704;50.470;12.072;2023-01-15T05:55:18;0.30;;;0.30;;
9330;SDS011;4704;50.470;12.072;2023-01-15T05:57:46;0.30;;;0.30;;
9330;SDS011;4704;50.470;12.072;2023-01-15T06:00:16;0.28;;;0.28;;
9330;SDS011;4704;50.470;12.072;2023-01-15T06:02:43;0.30;;;0.30;;
9330;SDS011;4704;50.470;12.072;2023-01-15T06:05:14;0.20;;;0.20;;
9330;SDS011;4704;50.470;12.072;2023-01-15T06:07:44;0.55;;;0.40;;
9330;SDS011;4704;50.470;12.072;2023-01-15T06:10:11;0.63;;;0.38;;
9330;SDS011;4704;50.470;12.072;2023-01-15T06:12:39;0.30;;;0.30;;
9330;SDS011;4704;50.470;12.072;2023-01-15T06:15:07;0.28;;;0.28;;
9330;SDS011;4704;50.470;12.072;2023-01-15T06:17:36;0.30;;;0.30;;
9330;SDS011;4704;50.470;12.072;2023-01-15T06:20:03;0.30;;;0.30;;
9330;SDS011;4704;50.470;12.072;2023-01-15T06:22:31;0.30;;;0.30;;
9330;SDS011;4704;50.470;12.072;2023-01-15T06:24:58;0.30;;;0.30;;
9330;SDS011;4704;50.470;12.072;2023-01-15T06:27:26;0.30;;;0.30;;
9330;SDS011;4704;50.470;12.072;2023-01-15T06:29:53;0.28;;;0.28;;
9330;SDS011;4704;50.470;12.072;2023-01-15T06:32:24;0.40;;;0.30;;
9330;SDS011;4704;50.470;12.072;2023-01-15T06:34:53;0.30;;;0.30;;
9330;SDS011;4704;50.470;12.072;2023-01-15T06:37:20;0.35;;;0.35;;
9330;SDS011;4704;50.470;12.072;2023-01-15T06:39:47;0.30;;;0.30;;
9330;SDS011;4704;50.470;12.072;2023-01-15T06:42:15;0.30;;;0.30;;
9330;SDS011;4704;50.470;12.072;2023-01-15T06:44:59;0.25;;;0.25;;
9330;SDS011;4704;50.470;12.072;2023-01-15T06:47:44;0.30;;;0.30;;
9330;SDS011;4704;50.470;12.072;2023-01-15T06:50:13;0.20;;;0.20;;
9330;SDS011;4704;50.470;12.072;2023-01-15T06:52:40;0.30;;;0.30;;
9330;SDS011;4704;50.470;12.072;2023-01-15T06:55:08;0.30;;;0.30;;
9330;SDS011;4704;50.470;12.072;2023-01-15T06:57:37;0.30;;;0.30;;
9330;SDS011;4704;50.470;12.072;2023-01-15T07:00:05;0.20;;;0.20;;
9330;SDS011;4704;50.470;12.072;2023-01-15T07:02:32;0.30;;;0.30;;
9330;SDS011;4704;50.470;12.072;2023-01-15T07:05:00;0.30;;;0.30;;
9330;SDS011;4704;50.470;12.072;2023-01-15T07:07:29;0.32;;;0.28;;
9330;SDS011;4704;50.470;12.072;2023-01-15T07:09:56;0.30;;;0.30;;
9330;SDS011;4704;50.470;12.072;2023-01-15T07:12:24;0.20;;;0.20;;
9330;SDS011;4704;50.470;12.072;2023-01-15T07:14:51;0.30;;;0.30;;
9330;SDS011;4704;50.470;12.072;2023-01-15T07:17:19;0.30;;;0.30;;
9330;SDS011;4704;50.470;12.072;2023-01-15T07:19:46;0.32;;;0.30;;
9330;SDS011;4704;50.470;12.072;2023-01-15T07:22:13;0.30;;;0.30;;
9330;SDS011;4704;50.470;12.072;2023-01-15T07:24:42;0.30;;;0.30;;
9330;SDS011;4704;50.470;12.072;2023-01-15T07:27:10;0.30;;;0.30;;
9330;SDS011;4704;50.470;12.072;2023-01-15T07:29:37;0.20;;;0.20;;
9330;SDS011;4704;50.470;12.072;2023-01-15T07:32:05;0.30;;;0.30;;
9330;SDS011;4704;50.470;12.072;2023-01-15T07:34:32;0.20;;;0.20;;
9330;SDS011;4704;50.470;12.072;2023-01-15T07:36:59;0.38;;;0.20;;
9330;SDS011;4704;50.470;12.072;2023-01-15T07:39:27;0.20;;;0.20;;
9330;SDS011;4704;50.470;12.072;2023-01-15T07:41:57;0.20;;;0.20;;
9330;SDS011;4704;50.470;12.072;2023-01-15T07:44:42;0.20;;;0.20;;
9330;SDS011;4704;50.470;12.072;2023-01-15T07:47:27;0.20;;;0.20;;
9330;SDS011;4704;50.470;12.072;2023-01-15T07:50:12;0.20;;;0.20;;
9330;SDS011;4704;50.470;12.072;2023-01-15T07:52:40;0.20;;;0.20;;
9330;SDS011;4704;50.470;12.072;2023-01-15T07:55:08;0.30;;;0.30;;
9330;SDS011;4704;50.470;12.072;2023-01-15T07:57:38;0.20;;;0.20;;
9330;SDS011;4704;50.470;12.072;2023-01-15T08:00:06;0.20;;;0.20;;
9330;SDS011;4704;50.470;12.072;2023-01-15T08:02:34;0.28;;;0.28;;
9330;SDS011;4704;50.470;12.072;2023-01-15T08:05:01;0.20;;;0.20;;
9330;SDS011;4704;50.470;12.072;2023-01-15T08:07:29;0.20;;;0.20;;
9330;SDS011;4704;50.470;12.072;2023-01-15T08:09:56;0.30;;;0.20;;
9330;SDS011;4704;50.470;12.072;2023-01-15T08:12:24;0.20;;;0.20;;
9330;SDS011;4704;50.470;12.072;2023-01-15T08:15:10;0.20;;;0.20;;
9330;SDS011;4704;50.470;12.072;2023-01-15T08:17:41;0.20;;;0.20;;
9330;SDS011;4704;50.470;12.072;2023-01-15T08:20:10;0.20;;;0.20;;
9330;SDS011;4704;50.470;12.072;2023-01-15T08:22:38;0.28;;;0.28;;
9330;SDS011;4704;50.470;12.072;2023-01-15T08:25:06;0.20;;;0.20;;
9330;SDS011;4704;50.470;12.072;2023-01-15T08:27:33;0.22;;;0.22;;
9330;SDS011;4704;50.470;12.072;2023-01-15T08:30:01;0.20;;;0.20;;
9330;SDS011;4704;50.470;12.072;2023-01-15T08:32:30;0.20;;;0.20;;
9330;SDS011;4704;50.470;12.072;2023-01-15T08:34:57;0.20;;;0.20;;
9330;SDS011;4704;50.470;12.072;2023-01-15T08:37:25;0.20;;;0.20;;
9330;SDS011;4704;50.470;12.072;2023-01-15T08:39:52;0.20;;;0.20;;
9330;SDS011;4704;50.470;12.072;2023-01-15T08:42:20;0.20;;;0.20;;
9330;SDS011;4704;50.470;12.072;2023-01-15T08:44:48;0.30;;;0.30;;
9330;SDS011;4704;50.470;12.072;2023-01-15T08:47:15;0.30;;;0.30;;
9330;SDS011;4704;50.470;12.072;2023-01-15T08:49:45;0.15;;;0.15;;
9330;SDS011;4704;50.470;12.072;2023-01-15T08:52:12;0.20;;;0.20;;
9330;SDS011;4704;50.470;12.072;2023-01-15T08:54:40;0.20;;;0.20;;
9330;SDS011;4704;50.470;12.072;2023-01-15T08:57:07;0.32;;;0.20;;
9330;SDS011;4704;50.470;12.072;2023-01-15T08:59:36;0.20;;;0.20;;
9330;SDS011;4704;50.470;12.072;2023-01-15T09:02:04;0.20;;;0.20;;
9330;SDS011;4704;50.470;12.072;2023-01-15T09:04:31;0.28;;;0.28;;
9330;SDS011;4704;50.470;12.072;2023-01-15T09:07:00;0.22;;;0.22;;
9330;SDS011;4704;50.470;12.072;2023-01-15T09:09:27;0.20;;;0.17;;
9330;SDS011;4704;50.470;12.072;2023-01-15T09:11:55;1.75;;;0.25;;
9330;SDS011;4704;50.470;12.072;2023-01-15T09:14:22;0.22;;;0.22;;
9330;SDS011;4704;50.470;12.072;2023-01-15T09:16:50;0.40;;;0.20;;
9330;SDS011;4704;50.470;12.072;2023-01-15T09:19:17;0.30;;;0.10;;
9330;SDS011;4704;50.470;12.072;2023-01-15T09:21:44;0.20;;;0.20;;
9330;SDS011;4704;50.470;12.072;2023-01-15T09:24:13;0.30;;;0.22;;
9330;SDS011;4704;50.470;12.072;2023-01-15T09:26:41;0.35;;;0.22;;
9330;SDS011;4704;50.470;12.072;2023-01-15T09:29:08;0.30;;;0.22;;
9330;SDS011;4704;50.470;12.072;2023-01-15T09:31:36;1.08;;;0.20;;
9330;SDS011;4704;50.470;12.072;2023-01-15T09:34:03;0.22;;;0.22;;
9330;SDS011;4704;50.470;12.072;2023-01-15T09:36:31;1.85;;;0.20;;
9330;SDS011;4704;50.470;12.072;2023-01-15T09:38:59;2.00;;;0.20;;
9330;SDS011;4704;50.470;12.072;2023-01-15T09:41:33;0.60;;;0.20;;
9330;SDS011;4704;50.470;12.072;2023-01-15T09:44:25;1.65;;;0.40;;
9330;SDS011;4704;50.470;12.072;2023-01-15T09:46:59;1.45;;;0.20;;
9330;SDS011;4704;50.470;12.072;2023-01-15T09:49:36;0.32;;;0.20;;
9330;SDS011;4704;50.470;12.072;2023-01-15T09:52:10;1.75;;;0.20;;
9330;SDS011;4704;50.470;12.072;2023-01-15T09:54:42;0.40;;;0.38;;
9330;SDS011;4704;50.470;12.072;2023-01-15T09:57:12;0.50;;;0.20;;
9330;SDS011;4704;50.470;12.072;2023-01-15T09:59:42;0.20;;;0.20;;
9330;SDS011;4704;50.470;12.072;2023-01-15T10:02:12;0.35;;;0.22;;
9330;SDS011;4704;50.470;12.072;2023-01-15T10:04:44;0.40;;;0.20;;
9330;SDS011;4704;50.470;12.072;2023-01-15T10:07:15;0.40;;;0.30;;
9330;SDS011;4704;50.470;12.072;2023-01-15T10:09:45;2.25;;;0.35;;
9330;SDS011;4704;50.470;12.072;2023-01-15T10:12:16;2.05;;;0.40;;
9330;SDS011;4704;50.470;12.072;2023-01-15T10:15:03;0.30;;;0.30;;
9330;SDS011;4704;50.470;12.072;2023-01-15T10:17:35;0.20;;;0.20;;
9330;SDS011;4704;50.470;12.072;2023-01-15T10:20:10;1.00;;;0.30;;
9330;SDS011;4704;50.470;12.072;2023-01-15T10:22:43;0.20;;;0.20;;
9330;SDS011;4704;50.470;12.072;2023-01-15T10:25:14;1.55;;;0.20;;
9330;SDS011;4704;50.470;12.072;2023-01-15T10:27:43;1.23;;;0.50;;
9330;SDS011;4704;50.470;12.072;2023-01-15T10:30:14;1.08;;;0.30;;
9330;SDS011;4704;50.470;12.072;2023-01-15T10:32:42;0.30;;;0.20;;
9330;SDS011;4704;50.470;12.072;2023-01-15T10:35:19;0.93;;;0.30;;
9330;SDS011;4704;50.470;12.072;2023-01-15T10:37:49;1.05;;;0.20;;
9330;SDS011;4704;50.470;12.072;2023-01-15T10:40:30;1.00;;;0.22;;
9330;SDS011;4704;50.470;12.072;2023-01-15T10:43:04;0.45;;;0.30;;
9330;SDS011;4704;50.470;12.072;2023-01-15T10:45:33;0.77;;;0.30;;
9330;SDS011;4704;50.470;12.072;2023-01-15T10:48:04;0.20;;;0.20;;
9330;SDS011;4704;50.470;12.072;2023-01-15T10:50:32;0.90;;;0.32;;
9330;SDS011;4704;50.470;12.072;2023-01-15T10:53:02;0.85;;;0.20;;
9330;SDS011;4704;50.470;12.072;2023-01-15T10:55:32;1.42;;;0.30;;
9330;SDS011;4704;50.470;12.072;2023-01-15T10:58:04;0.77;;;0.30;;
9330;SDS011;4704;50.470;12.072;2023-01-15T11:00:35;2.20;;;0.30;;
9330;SDS011;4704;50.470;12.072;2023-01-15T11:03:03;0.55;;;0.20;;
9330;SDS011;4704;50.470;12.072;2023-01-15T11:05:32;0.40;;;0.28;;
9330;SDS011;4704;50.470;12.072;2023-01-15T11:08:01;0.32;;;0.10;;
9330;SDS011;4704;50.470;12.072;2023-01-15T11:10:30;0.60;;;0.22;;
9330;SDS011;4704;50.470;12.072;2023-01-15T11:12:58;2.75;;;0.40;;
9330;SDS011;4704;50.470;12.072;2023-01-15T11:15:45;0.45;;;0.30;;
9330;SDS011;4704;50.470;12.072;2023-01-15T11:18:32;0.45;;;0.22;;
9330;SDS011;4704;50.470;12.072;2023-01-15T11:21:19;1.13;;;0.20;;
9330;SDS011;4704;50.470;12.072;2023-01-15T11:23:48;0.57;;;0.30;;
9330;SDS011;4704;50.470;12.072;2023-01-15T11:26:16;0.57;;;0.30;;
9330;SDS011;4704;50.470;12.072;2023-01-15T11:28:44;0.32;;;0.30;;
9330;SDS011;4704;50.470;12.072;2023-01-15T11:31:13;0.30;;;0.20;;
9330;SDS011;4704;50.470;12.072;2023-01-15T11:33:43;0.77;;;0.30;;
9330;SDS011;4704;50.470;12.072;2023-01-15T11:36:19;0.17;;;0.17;;
9330;SDS011;4704;50.470;12.072;2023-01-15T11:38:47;0.73;;;0.30;;
9330;SDS011;4704;50.470;12.072;2023-01-15T11:41:16;0.95;;;0.30;;
9330;SDS011;4704;50.470;12.072;2023-01-15T11:43:52;0.52;;;0.38;;
9330;SDS011;4704;50.470;12.072;2023-01-15T11:46:39;0.38;;;0.20;;
9330;SDS011;4704;50.470;12.072;2023-01-15T11:49:24;0.65;;;0.40;;
9330;SDS011;4704;50.470;12.072;2023-01-15T11:52:09;0.50;;;0.30;;
9330;SDS011;4704;50.470;12.072;2023-01-15T11:54:38;0.55;;;0.40;;
9330;SDS011;4704;50.470;12.072;2023-01-15T11:57:08;0.75;;;0.20;;
9330;SDS011;4704;50.470;12.072;2023-01-15T11:59:38;0.65;;;0.45;;
9330;SDS011;4704;50.470;12.072;2023-01-15T12:02:13;0.85;;;0.25;;
9330;SDS011;4704;50.470;12.072;2023-01-15T12:04:48;0.95;;;0.20;;
9330;SDS011;4704;50.470;12.072;2023-01-15T12:07:17;1.17;;;0.30;;
9330;SDS011;4704;50.470;12.072;2023-01-15T12:12:41;0.68;;;0.50;;
9330;SDS011;4704;50.470;12.072;2023-01-15T12:15:16;0.50;;;0.30;;
9330;SDS011;4704;50.470;12.072;2023-01-15T12:17:57;1.02;;;0.30;;
9330;SDS011;4704;50.470;12.072;2023-01-15T12:20:28;0.30;;;0.30;;
9330;SDS011;4704;50.470;12.072;2023-01-15T12:23:15;1.23;;;0.20;;
9330;SDS011;4704;50.470;12.072;2023-01-15T12:25:50;0.95;;;0.40;;
9330;SDS011;4704;50.470;12.072;2023-01-15T12:28:20;1.88;;;0.30;;
9330;SDS011;4704;50.470;12.072;2023-01-15T12:30:52;0.82;;;0.30;;
9330;SDS011;4704;50.470;12.072;2023-01-15T12:33:27;0.95;;;0.30;;
9330;SDS011;4704;50.470;12.072;2023-01-15T12:36:01;0.65;;;0.40;;
9330;SDS011;4704;50.470;12.072;2023-01-15T12:38:39;0.30;;;0.20;;
9330;SDS011;4704;50.470;12.072;2023-01-15T12:41:09;0.30;;;0.20;;
9330;SDS011;4704;50.470;12.072;2023-01-15T12:43:37;0.85;;;0.30;;
9330;SDS011;4704;50.470;12.072;2023-01-15T12:46:23;0.45;;;0.30;;
9330;SDS011;4704;50.470;12.072;2023-01-15T12:48:57;0.30;;;0.20;;
9330;SDS011;4704;50.470;12.072;2023-01-15T12:51:30;0.30;;;0.25;;
9330;SDS011;4704;50.470;12.072;2023-01-15T12:54:00;0.25;;;0.20;;
9330;SDS011;4704;50.470;12.072;2023-01-15T12:56:34;0.85;;;0.22;;
9330;SDS011;4704;50.470;12.072;2023-01-15T12:59:04;1.05;;;0.30;;
9330;SDS011;4704;50.470;12.072;2023-01-15T13:01:35;1.17;;;0.20;;
9330;SDS011;4704;50.470;12.072;2023-01-15T13:04:11;0.47;;;0.22;;
9330;SDS011;4704;50.470;12.072;2023-01-15T13:06:41;0.63;;;0.30;;
9330;SDS011;4704;50.470;12.072;2023-01-15T13:09:13;0.20;;;0.20;;
9330;SDS011;4704;50.470;12.072;2023-01-15T13:11:44;0.55;;;0.30;;
9330;SDS011;4704;50.470;12.072;2023-01-15T13:14:13;0.60;;;0.30;;
9330;SDS011;4704;50.470;12.072;2023-01-15T13:16:42;0.10;;;0.10;;
9330;SDS011;4704;50.470;12.072;2023-01-15T13:19:22;0.28;;;0.20;;
9330;SDS011;4704;50.470;12.072;2023-01-15T13:21:52;0.30;;;0.30;;
9330;SDS011;4704;50.470;12.072;2023-01-15T13:24:40;0.30;;;0.22;;
9330;SDS011;4704;50.470;12.072;2023-01-15T13:27:15;0.85;;;0.20;;
9330;SDS011;4704;50.470;12.072;2023-01-15T13:29:49;0.40;;;0.30;;
9330;SDS011;4704;50.470;12.072;2023-01-15T13:32:21;0.20;;;0.20;;
9330;SDS011;4704;50.470;12.072;2023-01-15T13:34:51;0.30;;;0.20;;
9330;SDS011;4704;50.470;12.072;2023-01-15T13:37:22;0.20;;;0.20;;
9330;SDS011;4704;50.470;12.072;2023-01-15T13:39:52;0.20;;;0.20;;
9330;SDS011;4704;50.470;12.072;2023-01-15T13:42:22;0.30;;;0.20;;
9330;SDS011;4704;50.470;12.072;2023-01-15T13:45:05;0.20;;;0.20;;
9330;SDS011;4704;50.470;12.072;2023-01-15T13:47:34;0.25;;;0.20;;
9330;SDS011;4704;50.470;12.072;2023-01-15T13:50:04;0.30;;;0.20;;
9330;SDS011;4704;50.470;12.072;2023-01-15T13:52:33;0.75;;;0.30;;
9330;SDS011;4704;50.470;12.072;2023-01-15T13:55:07;0.75;;;0.30;;
9330;SDS011;4704;50.470;12.072;2023-01-15T13:57:35;0.40;;;0.30;;
9330;SDS011;4704;50.470;12.072;2023-01-15T14:00:05;0.55;;;0.30;;
9330;SDS011;4704;50.470;12.072;2023-01-15T14:02:34;0.55;;;0.30;;
9330;SDS011;4704;50.470;12.072;2023-01-15T14:05:16;2.42;;;0.60;;
9330;SDS011;4704;50.470;12.072;2023-01-15T14:07:49;3.95;;;1.00;;
9330;SDS011;4704;50.470;12.072;2023-01-15T14:10:32;4.93;;;1.10;;
9330;SDS011;4704;50.470;12.072;2023-01-15T14:13:10;5.18;;;1.95;;
9330;SDS011;4704;50.470;12.072;2023-01-15T14:15:44;6.75;;;1.55;;
9330;SDS011;4704;50.470;12.072;2023-01-15T14:18:22;7.72;;;1.75;;
9330;SDS011;4704;50.470;12.072;2023-01-15T14:20:59;9.95;;;2.50;;
9330;SDS011;4704;50.470;12.072;2023-01-15T14:23:37;8.30;;;2.50;;
9330;SDS011;4704;50.470;12.072;2023-01-15T14:26:10;9.05;;;2.22;;
9330;SDS011;4704;50.470;12.072;2023-01-15T14:28:46;14.63;;;3.28;;
9330;SDS011;4704;50.470;12.072;2023-01-15T14:34:07;12.15;;;3.03;;
9330;SDS011;4704;50.470;12.072;2023-01-15T14:36:40;13.43;;;3.10;;
9330;SDS011;4704;50.470;12.072;2023-01-15T14:39:20;13.23;;;3.50;;
9330;SDS011;4704;50.470;12.072;2023-01-15T14:41:52;15.30;;;3.33;;
9330;SDS011;4704;50.470;12.072;2023-01-15T14:44:38;12.27;;;3.60;;
9330;SDS011;4704;50.470;12.072;2023-01-15T14:47:11;10.80;;;3.63;;
9330;SDS011;4704;50.470;12.072;2023-01-15T14:49:43;14.07;;;3.38;;
9330;SDS011;4704;50.470;12.072;2023-01-15T14:52:15;16.33;;;4.25;;
9330;SDS011;4704;50.470;12.072;2023-01-15T14:54:47;16.85;;;3.72;;
9330;SDS011;4704;50.470;12.072;2023-01-15T14:57:15;12.18;;;3.83;;
9330;SDS011;4704;50.470;12.072;2023-01-15T14:59:44;11.32;;;3.55;;
9330;SDS011;4704;50.470;12.072;2023-01-15T15:02:17;14.48;;;4.45;;
9330;SDS011;4704;50.470;12.072;2023-01-15T15:04:47;12.35;;;3.90;;
9330;SDS011;4704;50.470;12.072;2023-01-15T15:07:19;14.32;;;3.55;;
9330;SDS011;4704;50.470;12.072;2023-01-15T15:09:51;14.15;;;4.13;;
9330;SDS011;4704;50.470;12.072;2023-01-15T15:12:22;13.48;;;3.60;;
9330;SDS011;4704;50.470;12.072;2023-01-15T15:14:53;14.05;;;4.35;;
9330;SDS011;4704;50.470;12.072;2023-01-15T15:17:26;13.85;;;4.30;;
9330;SDS011;4704;50.470;12.072;2023-01-15T15:19:59;11.85;;;3.72;;
9330;SDS011;4704;50.470;12.072;2023-01-15T15:22:30;14.10;;;4.18;;
9330;SDS011;4704;50.470;12.072;2023-01-15T15:25:08;12.15;;;3.88;;
9330;SDS011;4704;50.470;12.072;2023-01-15T15:27:36;10.18;;;3.80;;
9330;SDS011;4704;50.470;12.072;2023-01-15T15:30:04;14.07;;;3.88;;